Time;durP1;ratioP1;P1;durP2;ratioP2;P2;SDS_P1;SDS_P2;PMS_P1;PMS_P2;Temp;Humidity;BMP_temperature;BMP_pressure;BME280_temperature;BME280_humidity;BME280_pressure;Samples;Min_cycle;Max_cycle;Signal;HPM_P1;HPM_P2
2021/09/25 00:01:07;;;;;;;;;;;;;;;15.74;94.13;101464.88;5015233;28;20331;-49
2021/09/25 00:03:34;;;;;;;;;;;;;;;15.83;93.47;101460.72;5031940;28;19936;-49
2021/09/25 00:06:01;;;;;;;;;;;;;;;15.82;93.81;101472.28;5029395;28;19975;-51
2021/09/25 00:08:28;;;;;;;;;;;;;;;15.82;93.63;101466.97;5049770;28;19925;-47
2021/09/25 00:10:55;;;;;;;;;;;;;;;15.82;93.42;101472.28;5031452;28;19929;-51
2021/09/25 00:13:21;;;;;;;;;;;;;;;15.84;92.93;101470.34;5030331;28;19964;-50
2021/09/25 00:15:48;;;;;;;;;;;;;;;15.86;93.19;101468.41;5029584;28;19929;-49
2021/09/25 00:18:14;;;;;;;;;;;;;;;15.85;92.91;101469.38;5031609;28;19925;-51
2021/09/25 00:20:41;;;;;;;;;;;;;;;15.88;93.02;101463.81;5032701;28;19971;-48
2021/09/25 00:23:08;;;;;;;;;;;;;;;15.91;92.52;101460.97;5028907;28;20563;-48
2021/09/25 00:25:35;;;;;;;;;;;;;;;15.94;92.28;101458.06;5047118;28;19925;-49
2021/09/25 00:28:02;;;;;;;;;;;;;;;15.95;92.09;101456.25;5049203;28;20372;-42
2021/09/25 00:30:28;;;;;;;;;;;;;;;15.96;91.90;101466.72;5046897;28;19983;-42
2021/09/25 00:32:55;;;;;;;;;;;;;;;15.95;91.74;101461.53;5030684;28;19932;-42
2021/09/25 00:35:22;;;;;;;;;;;;;;;15.96;91.61;101458.78;5048276;28;19925;-45
2021/09/25 00:37:49;;;;;;;;;;;;;;;15.97;91.59;101459.63;5033899;28;19928;-48
2021/09/25 00:40:16;;;;;;;;;;;;;;;15.98;91.34;101462.16;5033862;28;19925;-52
2021/09/25 00:42:43;;;;;;;;;;;;;;;15.98;91.32;101462.16;5033749;28;19925;-49
2021/09/25 00:45:10;;;;;;;;;;;;;;;15.97;91.43;101460.47;5031054;28;19978;-48
2021/09/25 00:47:37;;;;;;;;;;;;;;;15.98;91.07;101462.16;5030126;28;19956;-49
2021/09/25 00:50:05;;;;;;;;;;;;;;;15.96;91.24;101460.59;5013436;28;20544;-49
2021/09/25 00:52:32;;;;;;;;;;;;;;;15.96;91.04;101461.41;5044648;28;19929;-50
2021/09/25 00:54:58;;;;;;;;;;;;;;;15.99;90.91;101463.84;5046742;28;19932;-52
2021/09/25 00:57:25;;;;;;;;;;;;;;;15.99;90.95;101465.66;5033514;28;19979;-49
2021/09/25 00:59:51;;;;;;;;;;;;;;;16.01;90.83;101461.91;5048662;28;19979;-50
2021/09/25 01:02:18;;;;;;;;;;;;;;;16.03;90.92;101460.00;5032007;28;20024;-50
2021/09/25 01:04:46;;;;;;;;;;;;;;;16.04;90.44;101461.66;5044826;28;20024;-52
2021/09/25 01:07:13;;;;;;;;;;;;;;;16.07;90.55;101459.75;5044752;28;19925;-50
2021/09/25 01:09:40;;;;;;;;;;;;;;;16.06;90.29;101456.25;5029826;28;19936;-49
2021/09/25 01:12:07;;;;;;;;;;;;;;;16.04;90.40;101455.53;5042743;28;20501;-49
2021/09/25 01:14:34;;;;;;;;;;;;;;;16.03;90.40;101456.47;5028237;28;19932;-49
2021/09/25 01:17:05;;;;;;;;;;;;;;;16.01;90.71;101466.38;5031239;28;19936;-52
2021/09/25 01:19:32;;;;;;;;;;;;;;;16.06;90.44;101461.56;5047598;28;19929;-50
2021/09/25 01:21:58;;;;;;;;;;;;;;;16.08;90.59;101456.97;5044587;28;19929;-53
2021/09/25 01:24:25;;;;;;;;;;;;;;;16.08;90.54;101454.31;5044559;28;19933;-51
2021/09/25 01:26:52;;;;;;;;;;;;;;;16.05;90.29;101455.41;5026995;28;20642;-49
2021/09/25 01:29:18;;;;;;;;;;;;;;;16.05;90.47;101466.00;5028879;28;19933;-52
2021/09/25 01:31:45;;;;;;;;;;;;;;;16.05;90.70;101463.34;5029691;28;19929;-50
2021/09/25 01:34:11;;;;;;;;;;;;;;;16.07;90.33;101465.06;5029294;28;19925;-51
2021/09/25 01:36:38;;;;;;;;;;;;;;;16.08;90.62;101469.41;5029363;28;19929;-49
2021/09/25 01:39:05;;;;;;;;;;;;;;;16.09;90.29;101461.31;5029594;28;19932;-50
2021/09/25 01:41:31;;;;;;;;;;;;;;;16.08;90.53;101466.75;5031559;28;19929;-50
2021/09/25 01:43:58;;;;;;;;;;;;;;;16.11;90.41;101469.16;5032685;28;19929;-49
2021/09/25 01:46:24;;;;;;;;;;;;;;;16.09;90.24;101466.63;5031999;28;19925;-49
2021/09/25 01:48:51;;;;;;;;;;;;;;;16.04;90.54;101463.47;5044587;28;19960;-43
2021/09/25 01:51:18;;;;;;;;;;;;;;;16.05;90.77;101465.19;5029143;28;19925;-44
2021/09/25 01:53:44;;;;;;;;;;;;;;;16.04;90.77;101461.66;5029395;28;19925;-49
2021/09/25 01:56:12;;;;;;;;;;;;;;;16.07;90.62;101457.94;5031300;28;19929;-47
2021/09/25 01:58:39;;;;;;;;;;;;;;;16.07;90.65;101454.44;5032836;28;19926;-50
2021/09/25 02:01:06;;;;;;;;;;;;;;;16.07;90.64;101452.63;5044435;28;19929;-50
2021/09/25 02:03:36;;;;;;;;;;;;;;;16.09;90.37;101458.66;5030162;28;20421;-50
2021/09/25 02:06:03;;;;;;;;;;;;;;;16.08;90.72;101453.47;5047502;28;19925;-50
2021/09/25 02:08:30;;;;;;;;;;;;;;;16.03;90.76;101457.34;5030089;28;19925;-54
2021/09/25 02:10:57;;;;;;;;;;;;;;;16.05;90.65;101459.88;5027192;28;19956;-51
2021/09/25 02:13:24;;;;;;;;;;;;;;;16.03;90.47;101460.00;5028574;28;19990;-52
2021/09/25 02:15:51;;;;;;;;;;;;;;;16.01;90.94;101459.25;5029776;28;19983;-52
2021/09/25 02:18:17;;;;;;;;;;;;;;;16.04;90.89;101458.19;5032227;28;19929;-47
2021/09/25 02:20:44;;;;;;;;;;;;;;;16.03;90.80;101454.69;5032378;28;19929;-51
2021/09/25 02:23:10;;;;;;;;;;;;;;;16.01;90.76;101453.94;5032428;28;20395;-51
2021/09/25 02:25:37;;;;;;;;;;;;;;;16.02;90.64;101454.78;5029674;28;19929;-50
2021/09/25 02:28:04;;;;;;;;;;;;;;;16.04;90.36;101450.22;5027071;28;19925;-49
2021/09/25 02:30:30;;;;;;;;;;;;;;;16.02;90.58;101453.00;5028546;28;20427;-49
2021/09/25 02:32:57;;;;;;;;;;;;;;;16.05;90.58;101451.91;5028782;28;19979;-49
2021/09/25 02:35:24;;;;;;;;;;;;;;;16.04;90.50;101448.41;5030644;28;19929;-46
2021/09/25 02:37:51;;;;;;;;;;;;;;;16.02;90.24;101439.72;5029535;28;19929;-47
2021/09/25 02:40:18;;;;;;;;;;;;;;;16.04;90.25;101442.25;5028912;28;19979;-51
2021/09/25 02:42:45;;;;;;;;;;;;;;;15.97;90.28;101435.75;5030755;28;19925;-47
2021/09/25 02:45:12;;;;;;;;;;;;;;;15.98;90.39;101435.63;5047576;28;20441;-41
2021/09/25 02:47:39;;;;;;;;;;;;;;;15.99;90.58;101439.97;5032552;28;19925;-43
2021/09/25 02:50:07;;;;;;;;;;;;;;;15.96;90.37;101445.50;5034364;28;20433;-42
2021/09/25 02:52:34;;;;;;;;;;;;;;;15.97;90.38;101443.72;5047749;28;19925;-41
2021/09/25 02:55:01;;;;;;;;;;;;;;;15.94;90.59;101441.28;5032940;28;19987;-41
2021/09/25 02:57:27;;;;;;;;;;;;;;;15.93;90.19;101450.22;5036111;28;19925;-47
2021/09/25 02:59:54;;;;;;;;;;;;;;;15.95;90.47;101453.59;5035908;28;19926;-49
2021/09/25 03:02:20;;;;;;;;;;;;;;;15.95;89.97;101448.28;5035637;28;19979;-48
2021/09/25 03:04:47;;;;;;;;;;;;;;;15.96;90.16;101458.78;5035488;28;19933;-50
2021/09/25 03:07:14;;;;;;;;;;;;;;;15.96;89.84;101453.47;5034974;28;19958;-51
2021/09/25 03:09:41;;;;;;;;;;;;;;;15.92;90.17;101452.00;5030875;28;19940;-49
2021/09/25 03:12:08;;;;;;;;;;;;;;;15.92;90.03;101453.84;5030956;28;19932;-49
2021/09/25 03:14:34;;;;;;;;;;;;;;;15.92;90.10;101457.31;5034125;28;19925;-50
2021/09/25 03:17:01;;;;;;;;;;;;;;;15.89;89.90;101450.44;5047580;28;20275;-51
2021/09/25 03:19:28;;;;;;;;;;;;;;;15.87;90.01;101449.72;5033815;28;19932;-49
2021/09/25 03:21:54;;;;;;;;;;;;;;;15.88;89.90;101455.88;5032104;28;19933;-50
2021/09/25 03:24:21;;;;;;;;;;;;;;;15.85;90.16;101462.25;5047794;28;19937;-48
2021/09/25 03:26:47;;;;;;;;;;;;;;;15.83;90.23;101450.09;5035307;28;19929;-49
2021/09/25 03:29:14;;;;;;;;;;;;;;;15.85;90.39;101464.06;5035261;28;19925;-49
2021/09/25 03:31:41;;;;;;;;;;;;;;;15.81;90.26;101457.31;5035141;28;19974;-48
2021/09/25 03:34:07;;;;;;;;;;;;;;;15.79;90.50;101461.84;5033089;28;20313;-50
2021/09/25 03:36:34;;;;;;;;;;;;;;;15.76;90.66;101465.63;5030647;28;20364;-50
2021/09/25 03:39:01;;;;;;;;;;;;;;;15.75;90.90;101463.91;5033465;28;19929;-50
2021/09/25 03:41:27;;;;;;;;;;;;;;;15.74;90.98;101472.81;5032666;28;20418;-53
2021/09/25 03:43:54;;;;;;;;;;;;;;;15.79;90.96;101469.81;5031382;28;20342;-51
2021/09/25 03:46:21;;;;;;;;;;;;;;;15.77;91.13;101477.06;5032910;28;19933;-53
2021/09/25 03:48:47;;;;;;;;;;;;;;;15.76;91.39;101470.06;5034714;28;19925;-48
2021/09/25 03:51:14;;;;;;;;;;;;;;;15.77;91.34;101469.09;5030648;28;19925;-51
2021/09/25 03:53:41;;;;;;;;;;;;;;;15.75;91.14;101468.34;5031378;28;20395;-49
2021/09/25 03:56:08;;;;;;;;;;;;;;;15.75;90.95;101466.56;5028718;28;19929;-48
2021/09/25 03:58:35;;;;;;;;;;;;;;;15.75;91.03;101458.63;5032182;28;19951;-52
2021/09/25 04:01:02;;;;;;;;;;;;;;;15.76;90.78;101464.75;5034916;28;19948;-53
2021/09/25 04:03:29;;;;;;;;;;;;;;;15.75;90.95;101458.63;5049764;28;19925;-50
2021/09/25 04:05:58;;;;;;;;;;;;;;;15.77;90.92;101455.84;5049451;28;19968;-49
2021/09/25 04:08:25;;;;;;;;;;;;;;;15.78;90.64;101458.38;5030665;28;19971;-50
2021/09/25 04:10:51;;;;;;;;;;;;;;;15.82;90.56;101464.31;5030833;28;19933;-50
2021/09/25 04:13:18;;;;;;;;;;;;;;;15.79;90.74;101460.06;5029253;28;19925;-50
2021/09/25 04:15:44;;;;;;;;;;;;;;;15.78;90.62;101457.53;5031146;28;19978;-49
2021/09/25 04:18:11;;;;;;;;;;;;;;;15.76;90.51;101464.75;5030627;28;19934;-51
2021/09/25 04:20:38;;;;;;;;;;;;;;;15.75;90.68;101461.28;5031127;28;20685;-49
2021/09/25 04:23:05;;;;;;;;;;;;;;;15.77;90.44;101461.97;5029896;28;19987;-52
2021/09/25 04:25:31;;;;;;;;;;;;;;;15.76;90.32;101460.31;5032610;28;20124;-42
2021/09/25 04:28:06;;;;;;;;;;;;;;;15.77;90.17;101456.66;5027607;28;19925;-45
2021/09/25 04:30:33;;;;;;;;;;;;;;;15.75;90.46;101463.91;5031790;28;19925;-46
2021/09/25 04:33:00;;;;;;;;;;;;;;;15.78;90.66;101457.53;5031115;28;19925;-44
2021/09/25 04:35:27;;;;;;;;;;;;;;;15.79;90.52;101456.56;5030177;28;19967;-47
2021/09/25 04:37:54;;;;;;;;;;;;;;;15.80;90.30;101458.28;5045841;28;19925;-46
2021/09/25 04:40:21;;;;;;;;;;;;;;;15.76;90.41;101462.09;5047432;28;20438;-44
2021/09/25 04:42:48;;;;;;;;;;;;;;;15.79;90.34;101453.91;5031092;28;19929;-47
2021/09/25 04:45:14;;;;;;;;;;;;;;;15.77;90.36;101453.19;5029887;28;20000;-42
2021/09/25 04:47:41;;;;;;;;;;;;;;;15.71;90.62;101460.66;5045115;28;20396;-44
2021/09/25 04:50:09;;;;;;;;;;;;;;;15.73;90.60;101452.56;5030309;28;20620;-44
2021/09/25 04:52:35;;;;;;;;;;;;;;;15.70;90.24;101450.16;5048909;28;19925;-41
2021/09/25 04:55:02;;;;;;;;;;;;;;;15.73;90.35;101457.88;5030660;28;19932;-41
2021/09/25 04:57:29;;;;;;;;;;;;;;;15.70;90.42;101451.00;5028530;28;19929;-41
2021/09/25 04:59:55;;;;;;;;;;;;;;;15.68;90.59;101442.34;5028926;28;19995;-42
2021/09/25 05:02:22;;;;;;;;;;;;;;;15.70;90.58;101445.69;5033306;28;19979;-42
2021/09/25 05:04:49;;;;;;;;;;;;;;;15.62;90.66;101441.97;5032407;28;19933;-41
2021/09/25 05:07:16;;;;;;;;;;;;;;;15.60;90.63;101450.03;5033300;28;19925;-46
2021/09/25 05:09:42;;;;;;;;;;;;;;;15.63;90.69;101452.44;5031312;28;19940;-48
2021/09/25 05:12:09;;;;;;;;;;;;;;;15.61;91.25;101450.88;5032567;28;20376;-44
2021/09/25 05:14:36;;;;;;;;;;;;;;;15.64;90.87;101456.78;5032831;28;19925;-41
2021/09/25 05:17:02;;;;;;;;;;;;;;;15.62;91.06;101453.41;5048364;28;19929;-43
2021/09/25 05:19:29;;;;;;;;;;;;;;;15.63;90.73;101457.75;5033263;28;20284;-41
2021/09/25 05:21:56;;;;;;;;;;;;;;;15.60;91.11;101465.94;5031147;28;19928;-43
2021/09/25 05:24:22;;;;;;;;;;;;;;;15.61;91.03;101467.63;5044815;28;19925;-43
2021/09/25 05:26:49;;;;;;;;;;;;;;;15.66;90.79;101468.09;5032219;28;19933;-45
2021/09/25 05:29:19;;;;;;;;;;;;;;;15.66;90.39;101462.81;5047929;28;19929;-43
2021/09/25 05:31:45;;;;;;;;;;;;;;;15.65;91.06;101469.09;5031654;28;20027;-42
2021/09/25 05:34:13;;;;;;;;;;;;;;;15.68;90.77;101476.81;5031570;28;20406;-46
2021/09/25 05:36:40;;;;;;;;;;;;;;;15.70;90.62;101485.47;5029153;28;20315;-43
2021/09/25 05:39:06;;;;;;;;;;;;;;;15.68;90.90;101478.63;5030266;28;20223;-45
2021/09/25 05:41:33;;;;;;;;;;;;;;;15.71;90.47;101478.38;5026923;28;19926;-44
2021/09/25 05:44:00;;;;;;;;;;;;;;;15.71;90.47;101486.34;5028135;28;20330;-43
2021/09/25 05:46:26;;;;;;;;;;;;;;;15.68;90.66;101483.94;5029614;28;19971;-46
2021/09/25 05:48:53;;;;;;;;;;;;;;;15.70;90.68;101488.13;5029261;28;20027;-45
2021/09/25 05:51:20;;;;;;;;;;;;;;;15.70;90.79;101493.41;5031083;28;19928;-43
2021/09/25 05:53:46;;;;;;;;;;;;;;;15.65;90.87;101487.66;5032695;28;19929;-44
2021/09/25 05:56:13;;;;;;;;;;;;;;;15.68;90.98;101479.44;5028428;28;19929;-44
2021/09/25 05:58:40;;;;;;;;;;;;;;;15.68;90.73;101484.75;5044952;28;19929;-45
2021/09/25 06:01:07;;;;;;;;;;;;;;;15.67;90.57;101483.06;5030106;28;19929;-44
2021/09/25 06:03:33;;;;;;;;;;;;;;;15.69;91.06;101489.09;5047798;28;20016;-42
2021/09/25 06:06:00;;;;;;;;;;;;;;;15.71;90.62;101479.22;5032555;28;19925;-46
2021/09/25 06:08:27;;;;;;;;;;;;;;;15.71;91.00;101483.69;5029243;28;19936;-44
2021/09/25 06:10:54;;;;;;;;;;;;;;;15.74;91.07;101487.91;5028092;28;19925;-43
2021/09/25 06:13:20;;;;;;;;;;;;;;;15.74;91.07;101494.03;5032147;28;19925;-43
2021/09/25 06:15:47;;;;;;;;;;;;;;;15.75;90.96;101493.09;5034886;28;19975;-44
2021/09/25 06:18:14;;;;;;;;;;;;;;;15.77;91.12;101496.44;5036602;28;20024;-45
2021/09/25 06:20:41;;;;;;;;;;;;;;;15.76;90.47;101500.09;5036016;28;19979;-43
2021/09/25 06:23:07;;;;;;;;;;;;;;;15.81;90.76;101505.06;5035970;28;20263;-44
2021/09/25 06:25:35;;;;;;;;;;;;;;;15.82;90.58;101496.97;5035852;28;19932;-45
2021/09/25 06:28:01;;;;;;;;;;;;;;;15.86;90.33;101492.28;5036062;28;19925;-45
2021/09/25 06:30:28;;;;;;;;;;;;;;;15.85;90.42;101496.72;5036403;28;19925;-45
2021/09/25 06:32:56;;;;;;;;;;;;;;;15.84;90.87;101499.50;5034323;28;19929;-44
2021/09/25 06:35:23;;;;;;;;;;;;;;;15.87;90.54;101491.34;5031053;28;19936;-50
2021/09/25 06:37:50;;;;;;;;;;;;;;;15.90;90.53;101491.09;5031244;28;19925;-53
2021/09/25 06:40:16;;;;;;;;;;;;;;;15.91;90.61;101495.44;5032964;28;20407;-46
2021/09/25 06:42:43;;;;;;;;;;;;;;;15.93;90.57;101495.31;5035928;28;19951;-47
2021/09/25 06:45:10;;;;;;;;;;;;;;;15.93;90.59;101496.16;5036089;28;19964;-45
2021/09/25 06:47:36;;;;;;;;;;;;;;;15.96;90.41;101492.41;5035741;28;19925;-47
2021/09/25 06:50:03;;;;;;;;;;;;;;;15.94;90.52;101495.19;5051043;28;19925;-44
2021/09/25 06:52:30;;;;;;;;;;;;;;;15.97;90.63;101494.94;5051313;28;19932;-48
2021/09/25 06:54:57;;;;;;;;;;;;;;;16.04;90.85;101495.31;5048063;28;19929;-47
2021/09/25 06:57:24;;;;;;;;;;;;;;;16.04;90.88;101495.31;5046073;28;20414;-44
2021/09/25 06:59:51;;;;;;;;;;;;;;;16.00;90.97;101499.16;5035282;28;19929;-42
2021/09/25 07:02:18;;;;;;;;;;;;;;;16.03;91.22;101499.78;5050502;28;19979;-43
2021/09/25 07:04:45;;;;;;;;;;;;;;;16.08;90.49;101490.63;5032353;28;20459;-42
2021/09/25 07:07:11;;;;;;;;;;;;;;;16.13;90.80;101491.09;5031388;28;20383;-42
2021/09/25 07:09:41;;;;;;;;;;;;;;;16.15;90.60;101490.00;5034773;28;20371;-46
2021/09/25 07:12:08;;;;;;;;;;;;;;;16.21;90.18;101494.84;5033715;28;19994;-43
2021/09/25 07:14:35;;;;;;;;;;;;;;;16.25;89.96;101498.06;5030415;28;20366;-42
2021/09/25 07:17:02;;;;;;;;;;;;;;;16.29;90.23;101494.25;5032312;28;20388;-43
2021/09/25 07:19:29;;;;;;;;;;;;;;;16.29;90.03;101498.69;5031455;28;19931;-44
2021/09/25 07:21:55;;;;;;;;;;;;;;;16.34;89.97;101507.97;5046655;28;19956;-46
2021/09/25 07:24:22;;;;;;;;;;;;;;;16.38;89.89;101516.53;5032870;28;19933;-45
2021/09/25 07:26:49;;;;;;;;;;;;;;;16.43;89.41;101516.16;5033028;28;20311;-44
2021/09/25 07:29:15;;;;;;;;;;;;;;;16.47;89.00;101525.56;5035297;28;19925;-45
2021/09/25 07:31:42;;;;;;;;;;;;;;;16.45;88.94;101524.88;5034894;28;19971;-43
2021/09/25 07:34:08;;;;;;;;;;;;;;;16.50;89.17;101517.38;5034941;28;19925;-44
2021/09/25 07:36:35;;;;;;;;;;;;;;;16.57;89.13;101523.88;5034953;28;19932;-43
2021/09/25 07:39:02;;;;;;;;;;;;;;;16.59;88.84;101519.28;5035196;28;19929;-44
2021/09/25 07:41:28;;;;;;;;;;;;;;;16.64;88.80;101527.72;5050251;28;19925;-43
2021/09/25 07:43:55;;;;;;;;;;;;;;;16.65;88.78;101526.78;5033528;28;19932;-42
2021/09/25 07:46:22;;;;;;;;;;;;;;;16.71;88.72;101534.25;5032764;28;19925;-42
2021/09/25 07:48:49;;;;;;;;;;;;;;;16.79;88.58;101527.47;5031486;28;19925;-45
2021/09/25 07:51:16;;;;;;;;;;;;;;;16.81;87.89;101537.00;5030235;28;19933;-44
2021/09/25 07:53:42;;;;;;;;;;;;;;;16.86;88.05;101539.28;5032137;28;19925;-45
2021/09/25 07:56:09;;;;;;;;;;;;;;;16.91;87.63;101542.44;5034776;28;20321;-44
2021/09/25 07:58:35;;;;;;;;;;;;;;;16.93;87.51;101544.97;5032326;28;20427;-42
2021/09/25 08:01:04;;;;;;;;;;;;;;;16.95;87.40;101546.56;5031680;28;20346;-42
2021/09/25 08:03:31;;;;;;;;;;;;;;;16.93;87.56;101555.59;5033749;28;19925;-44
2021/09/25 08:05:58;;;;;;;;;;;;;;;16.94;87.23;101558.13;5034554;28;19932;-44
2021/09/25 08:08:25;;;;;;;;;;;;;;;17.01;87.25;101561.97;5034438;28;19932;-47
2021/09/25 08:10:52;;;;;;;;;;;;;;;17.03;87.01;101557.41;5034361;28;19925;-42
2021/09/25 08:13:18;;;;;;;;;;;;;;;17.05;86.75;101560.75;5032204;28;20427;-44
2021/09/25 08:15:47;;;;;;;;;;;;;;;17.08;86.90;101570.28;5046130;28;19929;-44
2021/09/25 08:18:14;;;;;;;;;;;;;;;17.12;86.98;101570.91;5030517;28;19975;-44
2021/09/25 08:20:40;;;;;;;;;;;;;;;17.14;87.05;101569.81;5030415;28;19952;-42
2021/09/25 08:23:07;;;;;;;;;;;;;;;17.21;86.63;101575.47;5034227;28;19925;-47
2021/09/25 08:25:34;;;;;;;;;;;;;;;17.25;86.21;101568.94;5032978;28;20346;-43
2021/09/25 08:28:01;;;;;;;;;;;;;;;17.19;86.58;101572.94;5034330;28;19966;-44
2021/09/25 08:30:28;;;;;;;;;;;;;;;17.21;86.50;101584.28;5034283;28;19932;-45
2021/09/25 08:32:57;;;;;;;;;;;;;;;17.32;85.89;101575.44;5032619;28;20383;-42
2021/09/25 08:35:23;;;;;;;;;;;;;;;17.30;86.35;101584.50;5048993;28;20022;-46
2021/09/25 08:37:50;;;;;;;;;;;;;;;17.36;85.73;101584.84;5033750;28;20330;-43
2021/09/25 08:40:19;;;;;;;;;;;;;;;17.34;86.01;101585.94;5030446;28;19925;-42
2021/09/25 08:42:46;;;;;;;;;;;;;;;17.38;85.92;101580.25;5028290;28;19975;-42
2021/09/25 08:45:13;;;;;;;;;;;;;;;17.44;85.32;101576.22;5030036;28;19932;-43
2021/09/25 08:47:40;;;;;;;;;;;;;;;17.47;85.48;101583.13;5048995;28;19988;-43
2021/09/25 08:50:07;;;;;;;;;;;;;;;17.54;85.42;101590.44;5049178;28;19971;-44
2021/09/25 08:52:34;;;;;;;;;;;;;;;17.60;85.32;101593.56;5048685;28;19936;-42
2021/09/25 08:55:00;;;;;;;;;;;;;;;17.68;85.04;101597.28;5033667;28;20399;-42
2021/09/25 08:57:27;;;;;;;;;;;;;;;17.73;84.66;101596.88;5032145;28;20392;-43
2021/09/25 08:59:54;;;;;;;;;;;;;;;17.80;84.12;101598.06;5032592;28;19983;-47
2021/09/25 09:02:21;;;;;;;;;;;;;;;17.80;84.09;101598.06;5029294;28;19979;-48
2021/09/25 09:04:49;;;;;;;;;;;;;;;17.68;84.36;101605.28;5030417;28;19935;-47
2021/09/25 09:07:17;;;;;;;;;;;;;;;17.55;84.88;101612.56;5032753;28;19925;-42
2021/09/25 09:09:44;;;;;;;;;;;;;;;17.62;84.81;101605.75;5047986;28;19925;-45
2021/09/25 09:12:11;;;;;;;;;;;;;;;17.70;84.55;101619.28;5048414;28;19929;-45
2021/09/25 09:14:41;;;;;;;;;;;;;;;17.62;84.77;101611.09;5028298;28;20371;-41
2021/09/25 09:17:08;;;;;;;;;;;;;;;17.50;85.19;101604.97;5030414;28;19953;-45
2021/09/25 09:19:35;;;;;;;;;;;;;;;17.62;84.69;101600.44;5033185;28;19932;-43
2021/09/25 09:22:05;;;;;;;;;;;;;;;17.74;84.16;101603.91;5032016;28;20334;-43
2021/09/25 09:24:45;;;;;;;;;;;;;;;17.77;84.54;101605.47;5029041;28;20383;-46
2021/09/25 09:27:13;;;;;;;;;;;;;;;17.81;84.19;101607.72;5027836;28;19960;-43
2021/09/25 09:29:40;;;;;;;;;;;;;;;17.82;83.91;101606.78;5029887;28;19925;-44
2021/09/25 09:32:07;;;;;;;;;;;;;;;17.86;83.75;101612.66;5029615;28;19980;-42
2021/09/25 09:34:41;;;;;;;;;;;;;;;17.95;83.72;101613.75;5028279;28;19932;-44
2021/09/25 09:37:26;;;;;;;;;;;;;;;17.94;83.87;101612.88;5032021;28;20335;-43
2021/09/25 09:40:00;;;;;;;;;;;;;;;17.88;84.05;101613.38;5033011;28;20346;-44
2021/09/25 09:42:41;;;;;;;;;;;;;;;17.92;83.74;101611.34;5032466;28;19931;-45
2021/09/25 09:45:08;;;;;;;;;;;;;;;17.76;84.15;101617.91;5032913;28;20015;-45
2021/09/25 09:47:45;;;;;;;;;;;;;;;17.81;84.21;101614.88;5032674;28;20371;-48
2021/09/25 09:50:14;;;;;;;;;;;;;;;17.94;83.38;101620.03;5030981;28;19979;-44
2021/09/25 09:52:41;;;;;;;;;;;;;;;18.01;83.50;101621.19;5032626;28;19945;-45
2021/09/25 09:55:08;;;;;;;;;;;;;;;18.03;83.42;101624.59;5031304;28;19932;-45
2021/09/25 09:57:35;;;;;;;;;;;;;;;18.02;83.61;101626.38;5042450;28;20359;-45
2021/09/25 10:00:02;;;;;;;;;;;;;;;18.15;83.65;101623.53;5029671;28;19925;-43
2021/09/25 10:02:29;;;;;;;;;;;;;;;18.20;83.42;101617.81;5028726;28;19994;-45
2021/09/25 10:04:56;;;;;;;;;;;;;;;18.30;82.18;101615.22;5044680;28;19963;-49
2021/09/25 10:07:23;;;;;;;;;;;;;;;18.18;83.15;101619.78;5029572;28;19925;-45
2021/09/25 10:09:49;;;;;;;;;;;;;;;18.33;82.35;101620.28;5046045;28;20402;-44
2021/09/25 10:12:16;;;;;;;;;;;;;;;18.29;82.17;101625.00;5027336;28;19929;-43
2021/09/25 10:14:45;;;;;;;;;;;;;;;18.30;81.80;101623.22;5044102;28;20060;-46
2021/09/25 10:17:13;;;;;;;;;;;;;;;18.39;81.85;101620.59;5032138;28;19979;-45
2021/09/25 10:19:41;;;;;;;;;;;;;;;18.40;82.23;101616.09;5032390;28;20004;-42
2021/09/25 10:22:15;;;;;;;;;;;;;;;18.40;81.90;101616.94;5032531;28;19951;-43
2021/09/25 10:24:50;;;;;;;;;;;;;;;18.48;82.52;101621.59;5045152;28;19929;-43
2021/09/25 10:27:17;;;;;;;;;;;;;;;18.53;82.43;101626.56;5042040;28;20307;-45
2021/09/25 10:29:48;;;;;;;;;;;;;;;18.69;81.69;101624.25;5029697;28;19967;-43
2021/09/25 10:32:28;;;;;;;;;;;;;;;18.62;81.37;101619.56;5032330;28;19936;-47
2021/09/25 10:34:56;;;;;;;;;;;;;;;18.75;81.15;101629.00;5032397;28;19933;-45
2021/09/25 10:37:22;;;;;;;;;;;;;;;18.86;80.33;101624.56;5031043;28;19975;-43
2021/09/25 10:39:55;;;;;;;;;;;;;;;18.95;79.97;101623.81;5029603;28;19931;-44
2021/09/25 10:42:22;;;;;;;;;;;;;;;18.95;80.31;101623.81;5026867;28;19929;-43
2021/09/25 10:44:49;;;;;;;;;;;;;;;19.03;79.77;101618.63;5045032;28;20315;-42
2021/09/25 10:47:17;;;;;;;;;;;;;;;19.19;79.54;101617.25;5032270;28;20402;-42
2021/09/25 10:49:45;;;;;;;;;;;;;;;19.25;79.22;101620.22;5032161;28;19925;-43
2021/09/25 10:52:13;;;;;;;;;;;;;;;19.18;78.61;101615.56;5031023;28;19929;-52
2021/09/25 10:54:39;;;;;;;;;;;;;;;19.30;78.90;101617.13;5044035;28;19953;-51
2021/09/25 10:57:07;;;;;;;;;;;;;;;19.37;79.10;101618.25;5027458;28;19979;-51
2021/09/25 10:59:34;;;;;;;;;;;;;;;19.48;78.31;101605.75;5030818;28;20032;-49
2021/09/25 11:02:01;;;;;;;;;;;;;;;19.37;77.60;101609.41;5034124;28;20366;-52
2021/09/25 11:04:32;;;;;;;;;;;;;;;19.28;79.10;101600.44;5035062;28;20622;-50
2021/09/25 11:06:59;;;;;;;;;;;;;;;19.50;78.67;101601.97;5031885;28;19929;-52
2021/09/25 11:09:31;;;;;;;;;;;;;;;19.60;78.00;101599.31;5032639;28;19932;-51
2021/09/25 11:12:03;;;;;;;;;;;;;;;19.70;77.54;101600.16;5035823;28;19926;-49
2021/09/25 11:14:31;;;;;;;;;;;;;;;19.60;77.54;101604.63;5050143;28;19931;-51
2021/09/25 11:17:02;;;;;;;;;;;;;;;19.74;77.44;101600.69;5035545;28;20414;-50
2021/09/25 11:19:30;;;;;;;;;;;;;;;19.69;77.37;101609.13;5035283;28;20032;-50
2021/09/25 11:22:00;;;;;;;;;;;;;;;19.61;77.48;101609.00;5031809;28;19925;-51
2021/09/25 11:24:28;;;;;;;;;;;;;;;19.81;76.63;101609.88;5048361;28;19933;-52
2021/09/25 11:26:55;;;;;;;;;;;;;;;19.90;76.73;101600.97;5032152;28;20014;-52
2021/09/25 11:29:22;;;;;;;;;;;;;;;19.95;76.70;101603.25;5031563;28;20023;-50
2021/09/25 11:31:49;;;;;;;;;;;;;;;20.22;75.30;101607.81;5034225;28;19933;-54
2021/09/25 11:34:25;;;;;;;;;;;;;;;20.13;75.82;101610.53;5033778;28;19929;-54
2021/09/25 11:36:53;;;;;;;;;;;;;;;20.03;76.59;101605.19;5050759;28;19925;-52
2021/09/25 11:39:20;;;;;;;;;;;;;;;20.17;76.25;101606.56;5035409;28;19975;-52
2021/09/25 11:42:07;;;;;;;;;;;;;;;20.18;75.86;101595.75;5034779;28;19933;-51
2021/09/25 11:44:44;;;;;;;;;;;;;;;20.34;75.87;101596.94;5030468;28;19925;-49
2021/09/25 11:47:13;;;;;;;;;;;;;;;20.21;75.45;101591.94;5046670;28;19926;-48
2021/09/25 11:49:39;;;;;;;;;;;;;;;20.26;74.65;101590.50;5047542;28;19925;-49
2021/09/25 11:52:06;;;;;;;;;;;;;;;20.27;75.09;101581.53;5033548;28;19924;-51
2021/09/25 11:54:32;;;;;;;;;;;;;;;20.32;74.53;101577.56;5016827;28;20391;-47
2021/09/25 11:56:59;;;;;;;;;;;;;;;20.38;74.50;101585.84;5044951;28;19928;-49
2021/09/25 11:59:26;;;;;;;;;;;;;;;20.28;74.42;101582.34;5031765;28;20708;-48
2021/09/25 12:01:53;;;;;;;;;;;;;;;20.42;74.17;101579.22;5033569;28;20392;-51
2021/09/25 12:04:36;;;;;;;;;;;;;;;20.48;74.02;101576.91;5031295;28;19935;-49
2021/09/25 12:07:02;;;;;;;;;;;;;;;20.49;74.34;101581.28;5033622;28;19932;-49
2021/09/25 12:09:42;;;;;;;;;;;;;;;20.64;73.87;101566.44;5034413;28;19972;-53
2021/09/25 12:12:09;;;;;;;;;;;;;;;20.53;74.39;101562.16;5049514;28;19925;-51
2021/09/25 12:14:45;;;;;;;;;;;;;;;20.65;73.91;101564.63;5034108;28;19940;-49
2021/09/25 12:17:15;;;;;;;;;;;;;;;20.58;73.61;101572.38;5031934;28;19925;-53
2021/09/25 12:19:43;;;;;;;;;;;;;;;20.81;73.51;101562.16;5013915;28;19933;-43
2021/09/25 12:22:20;;;;;;;;;;;;;;;20.85;73.23;101568.06;5034201;28;19979;-48
2021/09/25 12:24:47;;;;;;;;;;;;;;;20.86;73.18;101559.91;5034189;28;19925;-43
2021/09/25 12:27:24;;;;;;;;;;;;;;;20.99;72.63;101558.69;5047487;28;20335;-47
2021/09/25 12:29:51;;;;;;;;;;;;;;;20.95;72.80;101555.47;5029616;28;19925;-48
2021/09/25 12:32:18;;;;;;;;;;;;;;;21.06;73.54;101554.41;5045729;28;19932;-44
2021/09/25 12:34:48;;;;;;;;;;;;;;;21.14;72.83;101553.66;5029525;28;19972;-47
2021/09/25 12:37:15;;;;;;;;;;;;;;;21.19;72.14;101540.69;5045150;28;19936;-41